Grissom AFB, Indiana
Current Conditions -  °F | °C
As of 8:58 AM on Friday 24 Oct 2014 (Local Time) from KGUS Reporting Station
Haze Haze  
Wind Chill: 45°   Ceiling: 4700
Heat Index: 47°   Visibility: 3mi
Dew Point: 47°   Wind: 5mph
Humidity: 100%   Direction: 190°S
Pressure: 30.09"   Gusts: NA
Location:  40.66°N, 86.15°W
Report Text: KGUS 241258Z AUTO 19004KT 3SM BR BKN047 BKN060 OVC080 08/08 A3009 RMK AO2 RAB1157E1232DZB1232E1237 CIG 043 RWY05 SLP195 P0010 T00830083
Loading
Personal Weather Stations






























Interactive Weather Map
Tropical Storm Tracking
New forecast layout! Learn more

10-Day Weather Forecast

Advertisements
Track Severe Weather on mobile